sensor_id;sensor_type;location;lat;lon;timestamp;P1;durP1;ratioP1;P2;durP2;ratioP2
18793;SDS011;29610;49.022;12.114;2024-01-30T00:01:47;20.73;;;9.23;;
18793;SDS011;29610;49.022;12.114;2024-01-30T00:04:15;18.70;;;10.00;;
18793;SDS011;29610;49.022;12.114;2024-01-30T00:06:44;14.10;;;8.07;;
18793;SDS011;29610;49.022;12.114;2024-01-30T00:09:12;15.57;;;8.73;;
18793;SDS011;29610;49.022;12.114;2024-01-30T00:11:41;13.52;;;8.95;;
18793;SDS011;29610;49.022;12.114;2024-01-30T00:14:09;20.08;;;9.65;;
18793;SDS011;29610;49.022;12.114;2024-01-30T00:16:38;20.92;;;10.77;;
18793;SDS011;29610;49.022;12.114;2024-01-30T00:19:08;18.15;;;9.45;;
18793;SDS011;29610;49.022;12.114;2024-01-30T00:21:36;29.60;;;10.17;;
18793;SDS011;29610;49.022;12.114;2024-01-30T00:24:04;18.83;;;10.40;;
18793;SDS011;29610;49.022;12.114;2024-01-30T00:26:33;17.15;;;9.85;;
18793;SDS011;29610;49.022;12.114;2024-01-30T00:29:01;20.17;;;11.68;;
18793;SDS011;29610;49.022;12.114;2024-01-30T00:31:30;23.70;;;11.70;;
18793;SDS011;29610;49.022;12.114;2024-01-30T00:33:59;26.57;;;14.77;;
18793;SDS011;29610;49.022;12.114;2024-01-30T00:36:28;19.27;;;11.63;;
18793;SDS011;29610;49.022;12.114;2024-01-30T00:38:57;21.38;;;11.95;;
18793;SDS011;29610;49.022;12.114;2024-01-30T00:41:25;25.48;;;12.30;;
18793;SDS011;29610;49.022;12.114;2024-01-30T00:43:54;21.27;;;12.02;;
18793;SDS011;29610;49.022;12.114;2024-01-30T00:46:22;24.48;;;12.55;;
18793;SDS011;29610;49.022;12.114;2024-01-30T00:48:51;27.25;;;13.63;;
18793;SDS011;29610;49.022;12.114;2024-01-30T00:51:19;22.90;;;11.90;;
18793;SDS011;29610;49.022;12.114;2024-01-30T00:53:49;29.98;;;15.10;;
18793;SDS011;29610;49.022;12.114;2024-01-30T00:56:18;24.55;;;14.23;;
18793;SDS011;29610;49.022;12.114;2024-01-30T00:58:50;29.52;;;14.30;;
18793;SDS011;29610;49.022;12.114;2024-01-30T01:01:18;21.40;;;12.25;;
18793;SDS011;29610;49.022;12.114;2024-01-30T01:03:46;29.38;;;13.32;;
18793;SDS011;29610;49.022;12.114;2024-01-30T01:06:16;27.20;;;14.20;;
18793;SDS011;29610;49.022;12.114;2024-01-30T01:08:44;21.42;;;12.93;;
18793;SDS011;29610;49.022;12.114;2024-01-30T01:11:15;20.08;;;12.98;;
18793;SDS011;29610;49.022;12.114;2024-01-30T01:13:43;20.88;;;10.57;;
18793;SDS011;29610;49.022;12.114;2024-01-30T01:16:11;21.85;;;13.00;;
18793;SDS011;29610;49.022;12.114;2024-01-30T01:18:40;24.60;;;12.10;;
18793;SDS011;29610;49.022;12.114;2024-01-30T01:21:08;22.73;;;11.65;;
18793;SDS011;29610;49.022;12.114;2024-01-30T01:23:36;23.30;;;12.18;;
18793;SDS011;29610;49.022;12.114;2024-01-30T01:26:05;20.42;;;11.70;;
18793;SDS011;29610;49.022;12.114;2024-01-30T01:28:38;19.92;;;10.90;;
18793;SDS011;29610;49.022;12.114;2024-01-30T01:31:08;26.70;;;13.07;;
18793;SDS011;29610;49.022;12.114;2024-01-30T01:33:36;20.83;;;10.57;;
18793;SDS011;29610;49.022;12.114;2024-01-30T01:36:05;21.95;;;11.27;;
18793;SDS011;29610;49.022;12.114;2024-01-30T01:38:34;23.63;;;11.55;;
18793;SDS011;29610;49.022;12.114;2024-01-30T01:41:02;23.33;;;12.18;;
18793;SDS011;29610;49.022;12.114;2024-01-30T01:43:30;20.85;;;11.82;;
18793;SDS011;29610;49.022;12.114;2024-01-30T01:46:00;19.27;;;11.10;;
18793;SDS011;29610;49.022;12.114;2024-01-30T01:48:28;17.17;;;10.68;;
18793;SDS011;29610;49.022;12.114;2024-01-30T01:50:57;19.85;;;10.00;;
18793;SDS011;29610;49.022;12.114;2024-01-30T01:53:26;19.98;;;10.20;;
18793;SDS011;29610;49.022;12.114;2024-01-30T01:55:55;19.02;;;9.77;;
18793;SDS011;29610;49.022;12.114;2024-01-30T01:58:24;18.98;;;10.70;;
18793;SDS011;29610;49.022;12.114;2024-01-30T02:00:56;24.10;;;10.82;;
18793;SDS011;29610;49.022;12.114;2024-01-30T02:03:27;19.20;;;11.65;;
18793;SDS011;29610;49.022;12.114;2024-01-30T02:05:56;21.25;;;10.80;;
18793;SDS011;29610;49.022;12.114;2024-01-30T02:08:24;14.38;;;8.70;;
18793;SDS011;29610;49.022;12.114;2024-01-30T02:10:54;26.58;;;11.50;;
18793;SDS011;29610;49.022;12.114;2024-01-30T02:13:22;17.42;;;11.10;;
18793;SDS011;29610;49.022;12.114;2024-01-30T02:15:51;21.83;;;10.48;;
18793;SDS011;29610;49.022;12.114;2024-01-30T02:18:20;26.70;;;11.10;;
18793;SDS011;29610;49.022;12.114;2024-01-30T02:21:11;17.02;;;10.20;;
18793;SDS011;29610;49.022;12.114;2024-01-30T02:23:40;19.17;;;10.15;;
18793;SDS011;29610;49.022;12.114;2024-01-30T02:26:10;21.17;;;11.32;;
18793;SDS011;29610;49.022;12.114;2024-01-30T02:28:39;17.60;;;10.00;;
18793;SDS011;29610;49.022;12.114;2024-01-30T02:31:07;19.48;;;11.07;;
18793;SDS011;29610;49.022;12.114;2024-01-30T02:33:35;19.73;;;10.23;;
18793;SDS011;29610;49.022;12.114;2024-01-30T02:36:07;18.17;;;11.07;;
18793;SDS011;29610;49.022;12.114;2024-01-30T02:38:36;17.60;;;10.65;;
18793;SDS011;29610;49.022;12.114;2024-01-30T02:41:05;18.75;;;10.68;;
18793;SDS011;29610;49.022;12.114;2024-01-30T02:43:33;19.60;;;10.15;;
18793;SDS011;29610;49.022;12.114;2024-01-30T02:46:01;18.55;;;9.45;;
18793;SDS011;29610;49.022;12.114;2024-01-30T02:48:29;19.00;;;8.95;;
18793;SDS011;29610;49.022;12.114;2024-01-30T02:50:58;17.20;;;8.40;;
18793;SDS011;29610;49.022;12.114;2024-01-30T02:53:26;15.52;;;8.80;;
18793;SDS011;29610;49.022;12.114;2024-01-30T02:55:55;15.85;;;9.30;;
18793;SDS011;29610;49.022;12.114;2024-01-30T02:58:24;25.33;;;10.50;;
18793;SDS011;29610;49.022;12.114;2024-01-30T03:00:52;16.08;;;8.85;;
18793;SDS011;29610;49.022;12.114;2024-01-30T03:03:20;18.90;;;10.57;;
18793;SDS011;29610;49.022;12.114;2024-01-30T03:05:49;18.25;;;9.50;;
18793;SDS011;29610;49.022;12.114;2024-01-30T03:08:17;19.25;;;9.82;;
18793;SDS011;29610;49.022;12.114;2024-01-30T03:10:46;24.48;;;10.80;;
18793;SDS011;29610;49.022;12.114;2024-01-30T03:13:15;19.75;;;10.15;;
18793;SDS011;29610;49.022;12.114;2024-01-30T03:15:43;20.25;;;9.73;;
18793;SDS011;29610;49.022;12.114;2024-01-30T03:18:11;19.25;;;10.32;;
18793;SDS011;29610;49.022;12.114;2024-01-30T03:20:40;23.35;;;11.70;;
18793;SDS011;29610;49.022;12.114;2024-01-30T03:23:08;15.50;;;9.68;;
18793;SDS011;29610;49.022;12.114;2024-01-30T03:25:37;21.20;;;11.63;;
18793;SDS011;29610;49.022;12.114;2024-01-30T03:28:05;25.50;;;10.20;;
18793;SDS011;29610;49.022;12.114;2024-01-30T03:30:35;30.52;;;12.60;;
18793;SDS011;29610;49.022;12.114;2024-01-30T03:33:03;22.25;;;10.10;;
18793;SDS011;29610;49.022;12.114;2024-01-30T03:35:32;22.98;;;9.50;;
18793;SDS011;29610;49.022;12.114;2024-01-30T03:38:00;23.10;;;11.35;;
18793;SDS011;29610;49.022;12.114;2024-01-30T03:40:28;20.50;;;11.00;;
18793;SDS011;29610;49.022;12.114;2024-01-30T03:42:56;25.55;;;13.07;;
18793;SDS011;29610;49.022;12.114;2024-01-30T03:45:25;41.10;;;17.02;;
18793;SDS011;29610;49.022;12.114;2024-01-30T03:47:55;30.77;;;14.35;;
18793;SDS011;29610;49.022;12.114;2024-01-30T03:50:23;24.38;;;11.93;;
18793;SDS011;29610;49.022;12.114;2024-01-30T03:52:51;22.65;;;11.55;;
18793;SDS011;29610;49.022;12.114;2024-01-30T03:55:19;16.33;;;9.98;;
18793;SDS011;29610;49.022;12.114;2024-01-30T03:57:48;20.13;;;9.57;;
18793;SDS011;29610;49.022;12.114;2024-01-30T04:00:16;18.40;;;9.95;;
18793;SDS011;29610;49.022;12.114;2024-01-30T04:02:45;15.63;;;9.30;;
18793;SDS011;29610;49.022;12.114;2024-01-30T04:05:14;18.20;;;10.32;;
18793;SDS011;29610;49.022;12.114;2024-01-30T04:07:43;19.15;;;9.70;;
18793;SDS011;29610;49.022;12.114;2024-01-30T04:10:11;14.98;;;9.15;;
18793;SDS011;29610;49.022;12.114;2024-01-30T04:12:40;16.30;;;9.55;;
18793;SDS011;29610;49.022;12.114;2024-01-30T04:15:08;20.30;;;10.02;;
18793;SDS011;29610;49.022;12.114;2024-01-30T04:17:37;16.73;;;9.75;;
18793;SDS011;29610;49.022;12.114;2024-01-30T04:20:06;21.40;;;10.40;;
18793;SDS011;29610;49.022;12.114;2024-01-30T04:22:36;16.42;;;9.05;;
18793;SDS011;29610;49.022;12.114;2024-01-30T04:25:05;18.80;;;9.23;;
18793;SDS011;29610;49.022;12.114;2024-01-30T04:27:34;15.55;;;9.30;;
18793;SDS011;29610;49.022;12.114;2024-01-30T04:30:02;20.42;;;10.32;;
18793;SDS011;29610;49.022;12.114;2024-01-30T04:32:31;17.92;;;10.05;;
18793;SDS011;29610;49.022;12.114;2024-01-30T04:35:00;18.25;;;10.18;;
18793;SDS011;29610;49.022;12.114;2024-01-30T04:37:32;16.85;;;8.95;;
18793;SDS011;29610;49.022;12.114;2024-01-30T04:40:01;18.50;;;9.52;;
18793;SDS011;29610;49.022;12.114;2024-01-30T04:42:31;24.42;;;10.10;;
18793;SDS011;29610;49.022;12.114;2024-01-30T04:45:00;13.95;;;9.00;;
18793;SDS011;29610;49.022;12.114;2024-01-30T04:47:28;26.20;;;9.88;;
18793;SDS011;29610;49.022;12.114;2024-01-30T04:49:57;14.88;;;9.90;;
18793;SDS011;29610;49.022;12.114;2024-01-30T04:52:25;19.70;;;10.32;;
18793;SDS011;29610;49.022;12.114;2024-01-30T04:54:53;20.38;;;10.02;;
18793;SDS011;29610;49.022;12.114;2024-01-30T04:57:23;21.33;;;10.90;;
18793;SDS011;29610;49.022;12.114;2024-01-30T04:59:52;19.77;;;10.55;;
18793;SDS011;29610;49.022;12.114;2024-01-30T05:02:20;19.40;;;9.48;;
18793;SDS011;29610;49.022;12.114;2024-01-30T05:04:48;18.00;;;9.65;;
18793;SDS011;29610;49.022;12.114;2024-01-30T05:07:17;23.23;;;10.48;;
18793;SDS011;29610;49.022;12.114;2024-01-30T05:09:45;22.90;;;9.50;;
18793;SDS011;29610;49.022;12.114;2024-01-30T05:12:14;23.92;;;11.07;;
18793;SDS011;29610;49.022;12.114;2024-01-30T05:14:43;15.82;;;9.90;;
18793;SDS011;29610;49.022;12.114;2024-01-30T05:17:12;26.30;;;10.13;;
18793;SDS011;29610;49.022;12.114;2024-01-30T05:19:40;19.63;;;9.73;;
18793;SDS011;29610;49.022;12.114;2024-01-30T05:22:08;20.70;;;9.00;;
18793;SDS011;29610;49.022;12.114;2024-01-30T05:24:37;19.98;;;11.43;;
18793;SDS011;29610;49.022;12.114;2024-01-30T05:27:05;19.35;;;10.57;;
18793;SDS011;29610;49.022;12.114;2024-01-30T05:29:34;19.00;;;11.15;;
18793;SDS011;29610;49.022;12.114;2024-01-30T05:32:03;18.27;;;10.70;;
18793;SDS011;29610;49.022;12.114;2024-01-30T05:34:32;19.65;;;10.82;;
18793;SDS011;29610;49.022;12.114;2024-01-30T05:37:01;22.17;;;12.65;;
18793;SDS011;29610;49.022;12.114;2024-01-30T05:39:29;26.05;;;11.57;;
18793;SDS011;29610;49.022;12.114;2024-01-30T05:41:59;21.55;;;10.77;;
18793;SDS011;29610;49.022;12.114;2024-01-30T05:44:27;21.77;;;11.05;;
18793;SDS011;29610;49.022;12.114;2024-01-30T05:46:56;21.83;;;11.45;;
18793;SDS011;29610;49.022;12.114;2024-01-30T05:49:25;21.05;;;11.35;;
18793;SDS011;29610;49.022;12.114;2024-01-30T05:51:54;22.20;;;12.15;;
18793;SDS011;29610;49.022;12.114;2024-01-30T05:54:22;22.10;;;10.80;;
18793;SDS011;29610;49.022;12.114;2024-01-30T05:56:50;28.13;;;12.32;;
18793;SDS011;29610;49.022;12.114;2024-01-30T05:59:17;22.27;;;11.93;;
18793;SDS011;29610;49.022;12.114;2024-01-30T06:01:46;26.52;;;13.27;;
18793;SDS011;29610;49.022;12.114;2024-01-30T06:04:14;28.17;;;13.45;;
18793;SDS011;29610;49.022;12.114;2024-01-30T06:06:44;27.92;;;14.77;;
18793;SDS011;29610;49.022;12.114;2024-01-30T06:09:13;25.17;;;13.00;;
18793;SDS011;29610;49.022;12.114;2024-01-30T06:11:41;37.15;;;15.52;;
18793;SDS011;29610;49.022;12.114;2024-01-30T06:14:09;30.27;;;16.15;;
18793;SDS011;29610;49.022;12.114;2024-01-30T06:16:37;30.42;;;16.63;;
18793;SDS011;29610;49.022;12.114;2024-01-30T06:19:06;43.88;;;21.63;;
18793;SDS011;29610;49.022;12.114;2024-01-30T06:21:34;40.30;;;19.70;;
18793;SDS011;29610;49.022;12.114;2024-01-30T06:24:06;45.13;;;19.75;;
18793;SDS011;29610;49.022;12.114;2024-01-30T06:26:34;39.78;;;22.08;;
18793;SDS011;29610;49.022;12.114;2024-01-30T06:29:03;41.65;;;21.90;;
18793;SDS011;29610;49.022;12.114;2024-01-30T06:31:31;39.55;;;20.80;;
18793;SDS011;29610;49.022;12.114;2024-01-30T06:34:00;44.08;;;21.30;;
18793;SDS011;29610;49.022;12.114;2024-01-30T06:36:28;39.35;;;21.48;;
18793;SDS011;29610;49.022;12.114;2024-01-30T06:38:56;40.95;;;20.20;;
18793;SDS011;29610;49.022;12.114;2024-01-30T06:41:26;35.88;;;19.10;;
18793;SDS011;29610;49.022;12.114;2024-01-30T06:43:54;41.38;;;22.60;;
18793;SDS011;29610;49.022;12.114;2024-01-30T06:46:22;41.10;;;21.50;;
18793;SDS011;29610;49.022;12.114;2024-01-30T06:48:51;47.42;;;22.02;;
18793;SDS011;29610;49.022;12.114;2024-01-30T06:51:19;43.85;;;23.40;;
18793;SDS011;29610;49.022;12.114;2024-01-30T06:53:47;37.67;;;20.83;;
18793;SDS011;29610;49.022;12.114;2024-01-30T06:56:15;46.42;;;22.73;;
18793;SDS011;29610;49.022;12.114;2024-01-30T06:58:48;49.15;;;21.98;;
18793;SDS011;29610;49.022;12.114;2024-01-30T07:01:17;52.70;;;23.25;;
18793;SDS011;29610;49.022;12.114;2024-01-30T07:03:45;50.60;;;24.63;;
18793;SDS011;29610;49.022;12.114;2024-01-30T07:06:14;48.33;;;23.83;;
18793;SDS011;29610;49.022;12.114;2024-01-30T07:08:42;44.22;;;23.58;;
18793;SDS011;29610;49.022;12.114;2024-01-30T07:11:10;52.58;;;24.08;;
18793;SDS011;29610;49.022;12.114;2024-01-30T07:13:46;47.25;;;25.33;;
18793;SDS011;29610;49.022;12.114;2024-01-30T07:16:16;54.85;;;24.30;;
18793;SDS011;29610;49.022;12.114;2024-01-30T07:18:44;45.13;;;24.65;;
18793;SDS011;29610;49.022;12.114;2024-01-30T07:21:13;48.13;;;25.17;;
18793;SDS011;29610;49.022;12.114;2024-01-30T07:23:41;54.15;;;26.20;;
18793;SDS011;29610;49.022;12.114;2024-01-30T07:26:10;56.88;;;25.08;;
18793;SDS011;29610;49.022;12.114;2024-01-30T07:28:39;47.88;;;26.63;;
18793;SDS011;29610;49.022;12.114;2024-01-30T07:31:07;43.20;;;24.13;;
18793;SDS011;29610;49.022;12.114;2024-01-30T07:33:37;47.13;;;25.30;;
18793;SDS011;29610;49.022;12.114;2024-01-30T07:36:05;47.92;;;25.95;;
18793;SDS011;29610;49.022;12.114;2024-01-30T07:38:34;52.17;;;24.02;;
18793;SDS011;29610;49.022;12.114;2024-01-30T07:41:02;45.03;;;24.65;;
18793;SDS011;29610;49.022;12.114;2024-01-30T07:43:31;53.95;;;26.42;;
18793;SDS011;29610;49.022;12.114;2024-01-30T07:46:00;54.42;;;26.20;;
18793;SDS011;29610;49.022;12.114;2024-01-30T07:48:29;57.43;;;27.07;;
18793;SDS011;29610;49.022;12.114;2024-01-30T07:51:00;47.60;;;25.60;;
18793;SDS011;29610;49.022;12.114;2024-01-30T07:53:30;42.40;;;23.53;;
18793;SDS011;29610;49.022;12.114;2024-01-30T07:55:58;55.08;;;25.52;;
18793;SDS011;29610;49.022;12.114;2024-01-30T07:58:26;47.55;;;25.92;;
18793;SDS011;29610;49.022;12.114;2024-01-30T08:00:55;55.85;;;27.15;;
18793;SDS011;29610;49.022;12.114;2024-01-30T08:03:25;47.37;;;24.67;;
18793;SDS011;29610;49.022;12.114;2024-01-30T08:05:53;52.43;;;25.90;;
18793;SDS011;29610;49.022;12.114;2024-01-30T08:08:23;54.33;;;25.00;;
18793;SDS011;29610;49.022;12.114;2024-01-30T08:10:52;55.30;;;25.53;;
18793;SDS011;29610;49.022;12.114;2024-01-30T08:13:20;55.97;;;25.67;;
18793;SDS011;29610;49.022;12.114;2024-01-30T08:15:48;46.27;;;23.87;;
18793;SDS011;29610;49.022;12.114;2024-01-30T08:18:17;51.30;;;27.50;;
18793;SDS011;29610;49.022;12.114;2024-01-30T08:20:45;65.13;;;25.10;;
18793;SDS011;29610;49.022;12.114;2024-01-30T08:23:13;49.00;;;27.80;;
18793;SDS011;29610;49.022;12.114;2024-01-30T08:25:42;44.60;;;24.03;;
18793;SDS011;29610;49.022;12.114;2024-01-30T08:28:11;43.40;;;24.10;;
18793;SDS011;29610;49.022;12.114;2024-01-30T08:30:39;41.90;;;23.60;;
18793;SDS011;29610;49.022;12.114;2024-01-30T08:33:07;46.10;;;25.67;;
18793;SDS011;29610;49.022;12.114;2024-01-30T08:35:36;47.83;;;25.70;;
18793;SDS011;29610;49.022;12.114;2024-01-30T08:38:04;50.27;;;26.77;;
18793;SDS011;29610;49.022;12.114;2024-01-30T08:40:32;49.83;;;26.37;;
18793;SDS011;29610;49.022;12.114;2024-01-30T08:43:02;40.43;;;23.90;;
18793;SDS011;29610;49.022;12.114;2024-01-30T08:45:31;52.40;;;27.30;;
18793;SDS011;29610;49.022;12.114;2024-01-30T08:47:59;49.63;;;24.57;;
18793;SDS011;29610;49.022;12.114;2024-01-30T08:50:28;48.33;;;25.73;;
18793;SDS011;29610;49.022;12.114;2024-01-30T08:52:56;44.63;;;22.47;;
18793;SDS011;29610;49.022;12.114;2024-01-30T08:55:24;40.87;;;23.27;;
18793;SDS011;29610;49.022;12.114;2024-01-30T08:57:52;50.90;;;23.87;;
18793;SDS011;29610;49.022;12.114;2024-01-30T09:00:22;46.67;;;23.03;;
18793;SDS011;29610;49.022;12.114;2024-01-30T09:02:50;45.13;;;25.77;;
18793;SDS011;29610;49.022;12.114;2024-01-30T09:05:19;47.63;;;23.60;;
18793;SDS011;29610;49.022;12.114;2024-01-30T09:07:47;45.43;;;24.57;;
18793;SDS011;29610;49.022;12.114;2024-01-30T09:10:15;40.93;;;23.10;;
18793;SDS011;29610;49.022;12.114;2024-01-30T09:12:47;44.63;;;23.60;;
18793;SDS011;29610;49.022;12.114;2024-01-30T09:15:15;39.77;;;21.67;;
18793;SDS011;29610;49.022;12.114;2024-01-30T09:17:45;40.33;;;22.50;;
18793;SDS011;29610;49.022;12.114;2024-01-30T09:20:13;37.90;;;21.77;;
18793;SDS011;29610;49.022;12.114;2024-01-30T09:22:42;41.83;;;23.50;;
18793;SDS011;29610;49.022;12.114;2024-01-30T09:25:10;41.83;;;22.10;;
18793;SDS011;29610;49.022;12.114;2024-01-30T09:27:39;45.40;;;23.00;;
18793;SDS011;29610;49.022;12.114;2024-01-30T09:30:07;36.47;;;20.80;;
18793;SDS011;29610;49.022;12.114;2024-01-30T09:32:36;38.80;;;22.17;;
18793;SDS011;29610;49.022;12.114;2024-01-30T09:35:06;43.43;;;22.57;;
18793;SDS011;29610;49.022;12.114;2024-01-30T09:37:36;39.90;;;20.97;;
18793;SDS011;29610;49.022;12.114;2024-01-30T09:40:05;37.53;;;21.53;;
18793;SDS011;29610;49.022;12.114;2024-01-30T09:42:35;36.27;;;20.53;;
18793;SDS011;29610;49.022;12.114;2024-01-30T09:45:04;34.63;;;20.90;;
18793;SDS011;29610;49.022;12.114;2024-01-30T09:47:35;33.20;;;20.00;;
18793;SDS011;29610;49.022;12.114;2024-01-30T09:50:10;39.60;;;21.10;;
18793;SDS011;29610;49.022;12.114;2024-01-30T09:52:40;36.17;;;19.40;;
18793;SDS011;29610;49.022;12.114;2024-01-30T09:55:10;33.87;;;18.40;;
18793;SDS011;29610;49.022;12.114;2024-01-30T09:57:39;37.90;;;20.40;;
18793;SDS011;29610;49.022;12.114;2024-01-30T10:00:10;36.50;;;21.40;;
18793;SDS011;29610;49.022;12.114;2024-01-30T10:02:40;34.57;;;18.60;;
18793;SDS011;29610;49.022;12.114;2024-01-30T10:05:11;41.13;;;20.63;;
18793;SDS011;29610;49.022;12.114;2024-01-30T10:07:50;36.50;;;19.77;;
18793;SDS011;29610;49.022;12.114;2024-01-30T10:10:22;39.60;;;20.63;;
18793;SDS011;29610;49.022;12.114;2024-01-30T10:12:51;30.40;;;19.00;;
18793;SDS011;29610;49.022;12.114;2024-01-30T10:15:19;36.80;;;19.60;;
18793;SDS011;29610;49.022;12.114;2024-01-30T10:17:47;37.90;;;20.37;;
18793;SDS011;29610;49.022;12.114;2024-01-30T10:20:18;32.87;;;20.00;;
18793;SDS011;29610;49.022;12.114;2024-01-30T10:22:49;33.00;;;17.80;;
18793;SDS011;29610;49.022;12.114;2024-01-30T10:25:17;34.50;;;18.97;;
18793;SDS011;29610;49.022;12.114;2024-01-30T10:27:46;34.37;;;18.30;;
18793;SDS011;29610;49.022;12.114;2024-01-30T10:30:14;33.90;;;18.23;;
18793;SDS011;29610;49.022;12.114;2024-01-30T10:32:43;26.70;;;17.20;;
18793;SDS011;29610;49.022;12.114;2024-01-30T10:35:12;31.47;;;18.30;;
18793;SDS011;29610;49.022;12.114;2024-01-30T10:37:42;36.30;;;18.43;;
18793;SDS011;29610;49.022;12.114;2024-01-30T10:40:12;34.00;;;18.17;;
18793;SDS011;29610;49.022;12.114;2024-01-30T10:42:44;44.07;;;19.47;;
18793;SDS011;29610;49.022;12.114;2024-01-30T10:45:13;31.73;;;17.90;;
18793;SDS011;29610;49.022;12.114;2024-01-30T10:47:43;35.97;;;17.30;;
18793;SDS011;29610;49.022;12.114;2024-01-30T10:50:16;28.93;;;16.50;;
18793;SDS011;29610;49.022;12.114;2024-01-30T10:52:46;32.30;;;18.40;;
18793;SDS011;29610;49.022;12.114;2024-01-30T10:55:15;34.17;;;18.77;;
18793;SDS011;29610;49.022;12.114;2024-01-30T10:57:45;27.93;;;16.27;;
18793;SDS011;29610;49.022;12.114;2024-01-30T11:00:14;26.70;;;15.53;;
18793;SDS011;29610;49.022;12.114;2024-01-30T11:02:43;32.00;;;16.77;;
18793;SDS011;29610;49.022;12.114;2024-01-30T11:05:14;28.17;;;17.43;;
18793;SDS011;29610;49.022;12.114;2024-01-30T11:07:56;33.23;;;18.10;;
18793;SDS011;29610;49.022;12.114;2024-01-30T11:10:25;31.80;;;17.20;;
18793;SDS011;29610;49.022;12.114;2024-01-30T11:12:53;25.47;;;16.20;;
18793;SDS011;29610;49.022;12.114;2024-01-30T11:15:21;30.90;;;17.37;;
18793;SDS011;29610;49.022;12.114;2024-01-30T11:17:52;24.40;;;15.60;;
18793;SDS011;29610;49.022;12.114;2024-01-30T11:20:21;27.17;;;17.00;;
18793;SDS011;29610;49.022;12.114;2024-01-30T11:22:53;25.40;;;15.93;;
18793;SDS011;29610;49.022;12.114;2024-01-30T11:25:24;30.90;;;15.80;;
18793;SDS011;29610;49.022;12.114;2024-01-30T11:27:54;30.63;;;17.50;;
18793;SDS011;29610;49.022;12.114;2024-01-30T11:30:23;29.43;;;16.73;;
18793;SDS011;29610;49.022;12.114;2024-01-30T11:33:05;28.53;;;17.00;;
18793;SDS011;29610;49.022;12.114;2024-01-30T11:35:36;27.33;;;16.80;;
18793;SDS011;29610;49.022;12.114;2024-01-30T11:38:09;29.03;;;16.20;;
18793;SDS011;29610;49.022;12.114;2024-01-30T11:40:39;29.27;;;16.00;;
18793;SDS011;29610;49.022;12.114;2024-01-30T11:43:08;26.27;;;16.37;;
18793;SDS011;29610;49.022;12.114;2024-01-30T11:45:37;27.50;;;16.93;;
18793;SDS011;29610;49.022;12.114;2024-01-30T11:48:06;34.23;;;17.00;;
18793;SDS011;29610;49.022;12.114;2024-01-30T11:50:37;24.80;;;14.93;;
18793;SDS011;29610;49.022;12.114;2024-01-30T11:53:09;32.53;;;16.70;;
18793;SDS011;29610;49.022;12.114;2024-01-30T11:55:38;29.50;;;16.43;;
18793;SDS011;29610;49.022;12.114;2024-01-30T11:58:06;24.63;;;15.50;;
18793;SDS011;29610;49.022;12.114;2024-01-30T12:00:35;25.77;;;16.23;;
18793;SDS011;29610;49.022;12.114;2024-01-30T12:03:03;37.60;;;18.27;;
18793;SDS011;29610;49.022;12.114;2024-01-30T12:05:33;32.40;;;17.97;;
18793;SDS011;29610;49.022;12.114;2024-01-30T12:08:03;32.40;;;16.13;;
18793;SDS011;29610;49.022;12.114;2024-01-30T12:10:33;30.20;;;17.23;;
18793;SDS011;29610;49.022;12.114;2024-01-30T12:13:02;30.23;;;17.27;;
18793;SDS011;29610;49.022;12.114;2024-01-30T12:15:31;30.23;;;17.10;;
18793;SDS011;29610;49.022;12.114;2024-01-30T12:18:05;29.60;;;16.40;;
18793;SDS011;29610;49.022;12.114;2024-01-30T12:20:35;27.30;;;17.10;;
18793;SDS011;29610;49.022;12.114;2024-01-30T12:23:04;29.97;;;16.03;;
18793;SDS011;29610;49.022;12.114;2024-01-30T12:25:34;29.70;;;16.10;;
18793;SDS011;29610;49.022;12.114;2024-01-30T12:28:02;29.40;;;18.10;;
18793;SDS011;29610;49.022;12.114;2024-01-30T12:30:32;25.77;;;14.70;;
18793;SDS011;29610;49.022;12.114;2024-01-30T12:33:02;31.00;;;15.93;;
18793;SDS011;29610;49.022;12.114;2024-01-30T12:35:34;26.10;;;15.43;;
18793;SDS011;29610;49.022;12.114;2024-01-30T12:38:12;29.80;;;15.67;;
18793;SDS011;29610;49.022;12.114;2024-01-30T12:40:42;27.53;;;16.07;;
18793;SDS011;29610;49.022;12.114;2024-01-30T12:43:11;30.70;;;17.00;;
18793;SDS011;29610;49.022;12.114;2024-01-30T12:45:57;25.07;;;14.73;;
18793;SDS011;29610;49.022;12.114;2024-01-30T12:48:27;28.47;;;15.23;;
18793;SDS011;29610;49.022;12.114;2024-01-30T12:50:56;24.67;;;14.40;;
18793;SDS011;29610;49.022;12.114;2024-01-30T12:53:25;23.53;;;14.50;;
18793;SDS011;29610;49.022;12.114;2024-01-30T12:55:55;26.17;;;14.83;;
18793;SDS011;29610;49.022;12.114;2024-01-30T12:58:24;25.80;;;17.03;;
18793;SDS011;29610;49.022;12.114;2024-01-30T13:00:53;24.23;;;14.77;;
18793;SDS011;29610;49.022;12.114;2024-01-30T13:03:22;24.57;;;16.07;;
18793;SDS011;29610;49.022;12.114;2024-01-30T13:05:51;27.30;;;17.40;;
18793;SDS011;29610;49.022;12.114;2024-01-30T13:08:19;25.50;;;16.83;;
18793;SDS011;29610;49.022;12.114;2024-01-30T13:10:49;26.00;;;16.70;;
18793;SDS011;29610;49.022;12.114;2024-01-30T13:13:19;25.80;;;15.53;;
18793;SDS011;29610;49.022;12.114;2024-01-30T13:15:47;23.43;;;14.60;;
18793;SDS011;29610;49.022;12.114;2024-01-30T13:18:16;29.03;;;16.10;;
18793;SDS011;29610;49.022;12.114;2024-01-30T13:20:44;28.47;;;16.87;;
18793;SDS011;29610;49.022;12.114;2024-01-30T13:23:13;25.27;;;15.20;;
18793;SDS011;29610;49.022;12.114;2024-01-30T13:25:41;25.30;;;15.50;;
18793;SDS011;29610;49.022;12.114;2024-01-30T13:28:09;28.00;;;15.37;;
18793;SDS011;29610;49.022;12.114;2024-01-30T13:30:39;26.03;;;14.93;;
18793;SDS011;29610;49.022;12.114;2024-01-30T13:33:07;27.00;;;15.90;;
18793;SDS011;29610;49.022;12.114;2024-01-30T13:35:36;22.40;;;14.40;;
18793;SDS011;29610;49.022;12.114;2024-01-30T13:38:04;33.80;;;15.57;;
18793;SDS011;29610;49.022;12.114;2024-01-30T13:40:33;25.83;;;15.30;;
18793;SDS011;29610;49.022;12.114;2024-01-30T13:43:01;26.53;;;15.43;;
18793;SDS011;29610;49.022;12.114;2024-01-30T13:45:29;25.00;;;14.60;;
18793;SDS011;29610;49.022;12.114;2024-01-30T13:47:59;27.20;;;13.90;;
18793;SDS011;29610;49.022;12.114;2024-01-30T13:50:27;25.23;;;16.20;;
18793;SDS011;29610;49.022;12.114;2024-01-30T13:52:55;29.47;;;16.53;;
18793;SDS011;29610;49.022;12.114;2024-01-30T13:55:26;26.63;;;15.50;;
18793;SDS011;29610;49.022;12.114;2024-01-30T13:57:54;27.73;;;16.67;;
18793;SDS011;29610;49.022;12.114;2024-01-30T14:00:24;29.50;;;15.27;;
18793;SDS011;29610;49.022;12.114;2024-01-30T14:02:52;26.03;;;15.73;;
18793;SDS011;29610;49.022;12.114;2024-01-30T14:05:24;23.40;;;14.63;;
18793;SDS011;29610;49.022;12.114;2024-01-30T14:07:53;27.07;;;15.53;;
18793;SDS011;29610;49.022;12.114;2024-01-30T14:10:22;27.00;;;14.83;;
18793;SDS011;29610;49.022;12.114;2024-01-30T14:12:50;22.97;;;14.90;;
18793;SDS011;29610;49.022;12.114;2024-01-30T14:15:19;23.10;;;14.80;;
18793;SDS011;29610;49.022;12.114;2024-01-30T14:17:55;26.33;;;16.40;;
18793;SDS011;29610;49.022;12.114;2024-01-30T14:20:26;24.40;;;14.83;;
18793;SDS011;29610;49.022;12.114;2024-01-30T14:22:55;34.47;;;17.10;;